Homestead FAWN current weather conditions

sailwx.info

Wind from 021 at 3 knots

Air temperature 25.1° C
Dewpoint 22.3° C

Last reported at 2019-Sep-19 08:00 UTC.
Time now 2019-Sep-19 08:48 UTC

Location: N 25°31' W 080°30'.
View on Google Maps.

See reports from other nearby stations

  
Tides and Currents Weather Stations Pressure Air Temp Water Temp Dewpoint Dewpoint Depression Visibility Wind Speed Wind Dir Waves Ship Positions
date/time (UTC)wind fromknots sea level pressurealtimeterstation pressurevisibilityair tempwater tempwave heightnotes
2019-Sep-19 08:00 021 3 25.1
2019-Sep-19 07:45 038 3 25.2
2019-Sep-19 07:30 037 3 25.2
2019-Sep-19 07:15 031 3 25.4
2019-Sep-19 07:00 046 4 25.6
2019-Sep-19 06:45 039 4 25.7
2019-Sep-19 06:30 032 4 25.8
2019-Sep-19 06:15 034 4 26.1
2019-Sep-19 06:00 037 2 26.0
2019-Sep-19 05:45 023 2 26.0
2019-Sep-19 05:30 030 2 26.1
2019-Sep-19 05:15 036 2 25.9
2019-Sep-19 05:00 039 2 26.0
2019-Sep-19 04:45 034 2 26.1
2019-Sep-19 04:30 036 3 26.2
2019-Sep-19 04:15 034 2 26.2
2019-Sep-19 04:00 044 2 26.4
2019-Sep-19 03:45 049 3 26.6
2019-Sep-19 03:30 048 2 26.6
2019-Sep-19 03:15 039 3 26.8
2019-Sep-19 03:00 041 3 26.9
2019-Sep-19 02:45 048 2 26.8
2019-Sep-19 02:30 041 2 27.0
2019-Sep-19 02:15 043 3 27.1
2019-Sep-19 02:00 036 3 26.9
2019-Sep-19 01:45 055 3 27.1
2019-Sep-19 01:30 051 3 27.2
2019-Sep-19 01:15 050 4 27.2
2019-Sep-19 01:00 042 4 27.4
2019-Sep-19 00:45 048 4 27.4
2019-Sep-19 00:30 050 4 27.5
2019-Sep-19 00:15 051 4 27.6
2019-Sep-19 00:00 050 4 27.7
2019-Sep-18 23:45 056 3 28.0
2019-Sep-18 23:30 059 5 28.4
2019-Sep-18 23:15 063 6 28.8
2019-Sep-18 23:00 056 7 29.3
2019-Sep-18 22:45 058 7 29.6
2019-Sep-18 22:30 056 8 30.0
2019-Sep-18 22:15 066 9 30.3
2019-Sep-18 22:00 061 8 30.5
2019-Sep-18 21:45 058 8 30.7
2019-Sep-18 21:30 062 9 30.6
2019-Sep-18 21:15 062 10 30.6
2019-Sep-18 21:00 066 11 30.9
2019-Sep-18 20:45 071 12 31.1
2019-Sep-18 20:30 072 12 31.3
2019-Sep-18 20:15 067 12 31.5
2019-Sep-18 20:00 079 12 31.6
2019-Sep-18 19:45 063 10 31.9
2019-Sep-18 19:30 056 8 32.0
2019-Sep-18 19:15 066 9 32.0
2019-Sep-18 19:00 074 11 32.0
2019-Sep-18 18:45 076 9 31.9
2019-Sep-18 18:30 056 9 31.9
2019-Sep-18 18:15 065 9 32.2
2019-Sep-18 18:00 072 11 31.8
2019-Sep-18 17:45 067 9 31.3
2019-Sep-18 17:30 064 8 31.1
2019-Sep-18 17:15 088 4 29.5
2019-Sep-18 17:00 087 5 29.3
2019-Sep-18 16:45 078 4 28.7
2019-Sep-18 16:30 059 8 30.3
2019-Sep-18 16:15 066 7 31.0
2019-Sep-18 16:00 042 7 31.2
2019-Sep-18 15:45 043 6 30.8
2019-Sep-18 15:30 056 7 31.1
2019-Sep-18 15:15 030 5 30.7
2019-Sep-18 15:00 024 6 30.2
2019-Sep-18 14:45 053 7 30.3
2019-Sep-18 14:30 032 6 29.9
2019-Sep-18 14:15 022 5 29.4
2019-Sep-18 14:00 032 5 29.0
2019-Sep-18 13:45 029 5 28.6
2019-Sep-18 13:30 026 4 28.2
2019-Sep-18 13:15 020 3 27.6
2019-Sep-18 13:00 028 4 26.9
2019-Sep-18 12:45 011 2 26.1
2019-Sep-18 12:30 025 1 25.2
2019-Sep-18 12:15 344 2 24.8
2019-Sep-18 12:00 344 2 24.5
2019-Sep-18 11:45 356 2 24.4
2019-Sep-18 11:30 348 2 24.3
2019-Sep-18 11:15 337 2 24.1
2019-Sep-18 11:00 333 2 24.1
2019-Sep-18 10:45 334 2 24.1
2019-Sep-18 10:30 341 1 24.0
2019-Sep-18 10:15 313 1 24.1
2019-Sep-18 10:00 192 1 24.3
2019-Sep-18 09:45 357 1 24.6
2019-Sep-18 09:30 333 2 24.7
2019-Sep-18 09:15 343 2 24.7
2019-Sep-18 09:00 358 2 24.7
2019-Sep-18 08:45 010 2 24.8
2019-Sep-18 08:30 009 3 24.8
2019-Sep-18 08:15 001 3 24.7
2019-Sep-18 08:00 349 3 24.6
2019-Sep-18 07:45 357 3 24.4
2019-Sep-18 07:30 343 3 24.1
2019-Sep-18 07:15 341 2 23.9
2019-Sep-18 07:00 327 2 23.9
2019-Sep-18 06:45 333 2 24.0
2019-Sep-18 06:30 328 1 23.9
2019-Sep-18 06:15 317 1 23.9
2019-Sep-18 06:00 316 1 24.1
2019-Sep-18 05:45 312 1 24.3
2019-Sep-18 05:30 325 1 24.4
2019-Sep-18 05:15 320 2 24.4
2019-Sep-18 05:00 321 2 24.6
2019-Sep-18 04:45 314 2 24.8
2019-Sep-18 04:30 309 2 24.9
2019-Sep-18 04:15 287 2 25.1
2019-Sep-18 04:00 292 2 25.1
2019-Sep-18 03:45 274 4 25.2
2019-Sep-18 03:30 266 3 25.4
2019-Sep-18 03:15 281 1 25.5
2019-Sep-18 03:00 064 1 25.8
2019-Sep-18 02:45 082 1 26.1
2019-Sep-18 02:30 086 2 26.6
2019-Sep-18 02:15 072 2 26.9
2019-Sep-18 02:00 074 3 26.9
2019-Sep-18 01:45 073 2 27.0
2019-Sep-18 01:30 081 3 27.0
2019-Sep-18 01:15 082 2 27.0
2019-Sep-18 01:00 096 2 27.6
2019-Sep-18 00:45 087 4 28.1
2019-Sep-18 00:30 058 2 28.4
2019-Sep-18 00:15 033 2 28.9
2019-Sep-18 00:00 040 2 29.3
2019-Sep-17 23:45 020 2 29.6
2019-Sep-17 23:30 014 3 30.2
2019-Sep-17 23:15 013 2 30.9
2019-Sep-17 23:00 011 3 31.4
2019-Sep-17 22:45 011 4 31.8
2019-Sep-17 22:30 016 5 32.1
2019-Sep-17 22:15 014 4 32.2
2019-Sep-17 22:00 006 5 32.7
2019-Sep-17 21:45 346 5 32.8
2019-Sep-17 21:30 350 6 32.9
2019-Sep-17 21:15 354 6 33.0
2019-Sep-17 21:00 352 7 32.6
2019-Sep-17 20:45 360 6 32.4
2019-Sep-17 20:30 347 7 32.9
2019-Sep-17 20:15 346 6 33.1
2019-Sep-17 20:00 330 5 32.7
2019-Sep-17 19:45 359 7 32.4
2019-Sep-17 19:30 353 7 33.2
2019-Sep-17 19:15 347 6 32.7
2019-Sep-17 19:00 350 7 32.8
2019-Sep-17 18:45 347 7 32.8
2019-Sep-17 18:30 339 7 32.9
2019-Sep-17 18:15 339 8 32.6
2019-Sep-17 18:00 345 7 32.7
2019-Sep-17 17:45 346 8 32.5
2019-Sep-17 17:30 353 7 32.5
2019-Sep-17 17:15 355 6 32.5
2019-Sep-17 17:00 358 7 32.2
2019-Sep-17 16:45 342 8 31.9
2019-Sep-17 16:30 349 7 32.0
2019-Sep-17 16:15 338 7 31.8
2019-Sep-17 16:00 001 7 31.4
2019-Sep-17 15:45 002 6 31.3
2019-Sep-17 15:30 347 6 31.0
2019-Sep-17 15:15 355 5 30.9
2019-Sep-17 15:00 004 5 30.6
2019-Sep-17 14:45 349 5 30.2
2019-Sep-17 14:30 343 5 29.9
2019-Sep-17 14:15 331 5 29.4
2019-Sep-17 14:00 329 5 29.0
2019-Sep-17 13:45 333 5 28.6
2019-Sep-17 13:30 334 4 28.3
2019-Sep-17 13:15 343 4 27.9
2019-Sep-17 13:00 347 4 27.4
2019-Sep-17 12:45 351 4 27.1
2019-Sep-17 12:30 359 2 26.6
2019-Sep-17 12:15 002 2 25.9
2019-Sep-17 12:00 002 2 25.3
2019-Sep-17 11:45 360 2 24.8
2019-Sep-17 11:30 356 2 24.5
2019-Sep-17 11:15 014 1 24.4
2019-Sep-17 11:00 352 1 24.4
2019-Sep-17 10:45 357 1 24.4
2019-Sep-17 10:30 004 2 24.2
2019-Sep-17 10:15 002 1 23.8
2019-Sep-17 10:00 349 1 23.8
2019-Sep-17 09:45 298 0 23.8
2019-Sep-17 09:30 305 0 23.9
2019-Sep-17 09:15 299 0 24.0
2019-Sep-17 09:00 242 0 24.0
2019-Sep-17 08:45 278 0 24.2
2019-Sep-17 08:30 322 1 24.2
2019-Sep-17 08:15 346 1 24.5
2019-Sep-17 08:00 304 1 24.5